Lake Melville: Past 24 Hour Conditions

 

Natashquan Airport

11:00 PM EDT 20 October 2014
This table is a summary of hourly weather conditions for the past 24 hours.
Date / Time
(EDT)
Wind(knots) Conditions Visibility(km) Pressure(kPa) Air tempC) Relative humidity(%) Dew pointC)
20 October 2014
23:00 W 24 gust 35 Cloudy 16 99.9 6 81 3
22:00 W 25 gust 38 Cloudy 16 99.8 7 80 3
21:00 W 23 gust 34 Cloudy 16 99.7 7 82 4
20:00 W 24 gust 33 Light Rain 16 99.6 7 83 4
19:00 W 23 gust 34 Cloudy 16 99.5 7 85 4
18:00 W 25 gust 38 Light Rain 16 99.4 6 87 4
17:00 W 25 gust 37 Light Rain 13 99.3 6 88 4
16:00 W 26 gust 36 Light Rain 11 99.2 6 89 5
15:00 W 23 gust 33 Light Rain 8 99.1 6 93 5
14:00 W 19 gust 29 Light Rain 8 99.0 6 94 5
13:00 W 20 gust 29 Light Rain 11 99.0 6 94 5
12:00 W 16 gust 21 Light Rain 11 99.0 6 95 5
11:00 W 15 gust 22 Light Rain 13 99.1 5 95 5
10:00 W 14 gust 19 Rain 13 99.2 5 96 5
9:00 WNW 10 gust 15 Light Rain 15 99.3 5 96 4
8:00 WNW 7 Light Rain 13 99.5 5 97 4
7:00 WNW 6 Light Rain 13 99.5 5 97 4
6:00 NW 6 Light Rain 16 99.6 5 96 4
5:00 NW 4 Cloudy 16 99.7 5 96 4
4:00 NW 5 Cloudy 16 99.8 5 96 4
3:00 ENE 2 Cloudy 16 100.0 5 97 4
2:00 NE 2 Cloudy 16 100.1 5 95 4
1:00 WNW 4 Mostly Cloudy 16 100.1 5 92 4
0:00 WSW 2 Cloudy 16 100.2 6 90 4
19 October 2014
23:00 W 4 Cloudy 16 100.3 6 89 4
 
Map of Atlantic - Newfoundland marine weather areas Southwestern Grand Banks - 44138 Banquereau - 44139 Tail of the Bank - 44140 Nickerson Bank - 44251 Northeast Burgeo Bank - 44255 Blanc-Sablon Airport Cap Whittle Chevery Natashquan Airport Heath Point Miscou Island Grand Étang Ingonish Beach North Mountain St.Paul Island J.A. Douglas McCurdy Sydney Airport Charlottetown Airport East Point North Cape Argentia Bonavista Burgeo Cape Race Corner Brook Daniel's Harbour Englee Ferolle Point La Scie Port aux Basques Rocky Harbour Sagona Island St. Anthony Airport St. John's Int'l Airport St. Lawrence Stephenville Airport Twillingate Winterland Wreckhouse Cartwright Airport Mary's Harbour Grates Cove Pool's Island Marticot Island Long Pond Îles de la Madeleine Airport
Legend: buoyBuoy land stationLand Station